Time;durP1;ratioP1;P1;durP2;ratioP2;P2;SDS_P1;SDS_P2;PMS_P1;PMS_P2;Temp;Humidity;BMP_temperature;BMP_pressure;BME280_temperature;BME280_humidity;BME280_pressure;Samples;Min_cycle;Max_cycle;Signal;HPM_P1;HPM_P2
2024/02/13 00:00:09;;;;;;;11.93;4.15;;;;;;;;;;5075414;28;20044;-72
2024/02/13 00:02:36;;;;;;;10.20;3.83;;;;;;;;;;5064895;28;20164;-73
2024/02/13 00:05:07;;;;;;;8.93;3.45;;;;;;;;;;5065039;28;20060;-73
2024/02/13 00:07:34;;;;;;;14.95;4.45;;;;;;;;;;5068803;28;20070;-73
2024/02/13 00:10:01;;;;;;;11.43;4.47;;;;;;;;;;5061904;28;20076;-73
2024/02/13 00:12:28;;;;;;;14.43;4.65;;;;;;;;;;5076523;28;20097;-73
2024/02/13 00:14:55;;;;;;;10.35;4.72;;;;;;;;;;5052134;28;20058;-73
2024/02/13 00:17:23;;;;;;;12.63;4.43;;;;;;;;;;5072757;28;20044;-72
2024/02/13 00:19:50;;;;;;;10.57;4.30;;;;;;;;;;5077675;28;20402;-74
2024/02/13 00:22:17;;;;;;;14.55;4.60;;;;;;;;;;5080327;28;20055;-73
2024/02/13 00:24:43;;;;;;;10.60;4.40;;;;;;;;;;5072262;28;20572;-72
2024/02/13 00:27:10;;;;;;;12.23;4.57;;;;;;;;;;5064610;28;20114;-73
2024/02/13 00:29:36;;;;;;;10.30;4.82;;;;;;;;;;5064911;28;20055;-73
2024/02/13 00:32:04;;;;;;;13.45;5.22;;;;;;;;;;5065097;28;20148;-73
2024/02/13 00:34:31;;;;;;;11.70;5.60;;;;;;;;;;5067294;28;20052;-73
2024/02/13 00:37:00;;;;;;;13.32;5.65;;;;;;;;;;5062393;28;20048;-73
2024/02/13 00:39:27;;;;;;;10.40;5.70;;;;;;;;;;5061268;28;20067;-73
2024/02/13 00:41:55;;;;;;;12.55;5.68;;;;;;;;;;5073049;28;20102;-73
2024/02/13 00:44:22;;;;;;;12.67;5.47;;;;;;;;;;5069672;28;20054;-73
2024/02/13 00:46:48;;;;;;;13.88;5.93;;;;;;;;;;5078422;28;20048;-73
2024/02/13 00:49:15;;;;;;;15.57;7.70;;;;;;;;;;5072461;28;20057;-72
2024/02/13 00:51:41;;;;;;;13.80;6.57;;;;;;;;;;5080447;28;20063;-71
2024/02/13 00:54:13;;;;;;;10.32;6.05;;;;;;;;;;5066814;28;20045;-72
2024/02/13 00:56:41;;;;;;;14.82;6.90;;;;;;;;;;5086015;28;20151;-72
2024/02/13 00:59:09;;;;;;;11.93;6.70;;;;;;;;;;5053532;28;20059;-71
2024/02/13 01:01:36;;;;;;;16.77;7.50;;;;;;;;;;5061779;28;20394;-71
2024/02/13 01:04:06;;;;;;;13.98;7.65;;;;;;;;;;5073065;28;20156;-72
2024/02/13 01:06:33;;;;;;;12.13;6.10;;;;;;;;;;5068335;28;20144;-71
2024/02/13 01:09:02;;;;;;;13.80;6.78;;;;;;;;;;5060634;28;20055;-73
2024/02/13 01:11:29;;;;;;;;;;;;;;;;;;5066858;28;20087;-72
2024/02/13 01:13:56;;;;;;;11.75;6.55;;;;;;;;;;5071823;28;20390;-71
2024/02/13 01:16:22;;;;;;;15.02;6.63;;;;;;;;;;5081121;28;20105;-72
2024/02/13 01:18:51;;;;;;;12.52;7.05;;;;;;;;;;5046911;28;20057;-73
2024/02/13 01:21:18;;;;;;;14.13;8.35;;;;;;;;;;5073518;28;20987;-72
2024/02/13 01:23:45;;;;;;;12.40;7.63;;;;;;;;;;5055704;28;20167;-72
2024/02/13 01:26:11;;;;;;;15.90;8.63;;;;;;;;;;5070413;28;20086;-72
2024/02/13 01:28:38;;;;;;;11.25;7.68;;;;;;;;;;5067577;28;20060;-70
2024/02/13 01:31:05;;;;;;;15.50;9.07;;;;;;;;;;5067481;28;20059;-72
2024/02/13 01:33:33;;;;;;;16.75;9.45;;;;;;;;;;5081432;28;20190;-73
2024/02/13 01:36:01;;;;;;;17.67;9.10;;;;;;;;;;5064140;28;20044;-72
2024/02/13 01:38:29;;;;;;;18.50;9.75;;;;;;;;;;5078798;28;20531;-72
2024/02/13 01:40:55;;;;;;;18.02;9.60;;;;;;;;;;5066395;28;20076;-72
2024/02/13 01:43:24;;;;;;;17.58;10.45;;;;;;;;;;5070623;28;20450;-72
2024/02/13 01:45:55;;;;;;;16.00;10.73;;;;;;;;;;5069645;28;20052;-72
2024/02/13 01:48:25;;;;;;;18.13;10.27;;;;;;;;;;5073555;28;20052;-72
2024/02/13 01:50:52;;;;;;;17.70;11.05;;;;;;;;;;5077271;28;20040;-72
2024/02/13 01:53:21;;;;;;;16.40;10.95;;;;;;;;;;5079896;28;20059;-72
2024/02/13 01:55:48;;;;;;;16.70;11.30;;;;;;;;;;5064025;28;20465;-72
2024/02/13 01:58:16;;;;;;;17.70;11.95;;;;;;;;;;5068377;28;20048;-72
2024/02/13 02:00:43;;;;;;;15.55;10.82;;;;;;;;;;5080966;28;20052;-72
2024/02/13 02:03:10;;;;;;;17.73;12.73;;;;;;;;;;5067931;28;20385;-72
2024/02/13 02:05:37;;;;;;;20.77;12.00;;;;;;;;;;5070172;28;20052;-73
2024/02/13 02:08:04;;;;;;;17.05;11.18;;;;;;;;;;5083798;28;20056;-72
2024/02/13 02:10:30;;;;;;;20.75;11.85;;;;;;;;;;5086509;28;20051;-72
2024/02/13 02:12:56;;;;;;;17.85;12.32;;;;;;;;;;5073832;28;20052;-72
2024/02/13 02:15:23;;;;;;;21.23;12.93;;;;;;;;;;5063518;28;20076;-72
2024/02/13 02:17:52;;;;;;;16.67;12.68;;;;;;;;;;5072670;28;20704;-72
2024/02/13 02:20:19;;;;;;;18.95;12.45;;;;;;;;;;5075673;28;20492;-72
2024/02/13 02:22:49;;;;;;;18.05;12.13;;;;;;;;;;5079199;28;20053;-73
2024/02/13 02:25:22;;;;;;;18.92;11.70;;;;;;;;;;5067724;28;20054;-72
2024/02/13 02:27:49;;;;;;;19.55;12.98;;;;;;;;;;5064918;28;20095;-73
2024/02/13 02:30:15;;;;;;;20.88;13.05;;;;;;;;;;5068466;28;20136;-72
2024/02/13 02:32:41;;;;;;;19.60;12.05;;;;;;;;;;5063143;28;20044;-73
2024/02/13 02:35:08;;;;;;;19.85;12.00;;;;;;;;;;5077152;28;20054;-72
2024/02/13 02:37:39;;;;;;;17.92;11.10;;;;;;;;;;5066649;28;20094;-72
2024/02/13 02:40:05;;;;;;;17.75;12.05;;;;;;;;;;5070597;28;20485;-72
2024/02/13 02:42:32;;;;;;;17.95;12.23;;;;;;;;;;5074215;28;20056;-72
2024/02/13 02:44:59;;;;;;;15.55;11.50;;;;;;;;;;5081193;28;20083;-71
2024/02/13 02:47:25;;;;;;;19.63;12.25;;;;;;;;;;5063291;28;20456;-73
2024/02/13 02:49:52;;;;;;;20.20;12.55;;;;;;;;;;5091416;28;20052;-72
2024/02/13 02:52:18;;;;;;;21.92;13.35;;;;;;;;;;5076044;28;20051;-72
2024/02/13 02:54:44;;;;;;;19.27;12.13;;;;;;;;;;5084379;28;20532;-72
2024/02/13 02:57:11;;;;;;;17.85;12.45;;;;;;;;;;5055858;28;20052;-73
2024/02/13 02:59:37;;;;;;;22.50;12.07;;;;;;;;;;5058313;28;20280;-72
2024/02/13 03:02:04;;;;;;;19.95;12.60;;;;;;;;;;5071631;28;20056;-72
2024/02/13 03:04:31;;;;;;;23.27;12.43;;;;;;;;;;5077456;28;20064;-73
2024/02/13 03:06:59;;;;;;;21.95;13.82;;;;;;;;;;5057782;28;20561;-73
2024/02/13 03:09:26;;;;;;;22.27;13.15;;;;;;;;;;5068793;28;20048;-73
2024/02/13 03:11:52;;;;;;;20.35;12.73;;;;;;;;;;5066801;28;20046;-72
2024/02/13 03:14:19;;;;;;;20.80;12.60;;;;;;;;;;5071339;28;20047;-73
2024/02/13 03:16:47;;;;;;;18.38;12.80;;;;;;;;;;5071004;28;20481;-73
2024/02/13 03:19:13;;;;;;;22.10;12.73;;;;;;;;;;5067271;28;20165;-73
2024/02/13 03:21:40;;;;;;;21.35;12.07;;;;;;;;;;5080227;28;20488;-73
2024/02/13 03:24:06;;;;;;;23.20;13.40;;;;;;;;;;5062874;28;20443;-73
2024/02/13 03:26:32;;;;;;;16.88;12.43;;;;;;;;;;5062869;28;20048;-73
2024/02/13 03:28:59;;;;;;;19.63;12.55;;;;;;;;;;5074881;28;20066;-73
2024/02/13 03:31:25;;;;;;;17.55;11.63;;;;;;;;;;5074228;28;20124;-73
2024/02/13 03:33:52;;;;;;;20.52;13.45;;;;;;;;;;5054814;28;20054;-73
2024/02/13 03:36:19;;;;;;;25.23;13.25;;;;;;;;;;5079915;28;20048;-73
2024/02/13 03:38:48;;;;;;;20.10;13.20;;;;;;;;;;5071369;28;20101;-73
2024/02/13 03:41:14;;;;;;;;;;;;;;;;;;5057746;28;20423;-73
2024/02/13 03:43:43;;;;;;;20.77;11.98;;;;;;;;;;5081417;28;19923;-73
2024/02/13 03:46:10;;;;;;;21.75;11.82;;;;;;;;;;5073214;28;20060;-73
2024/02/13 03:48:36;;;;;;;20.10;13.07;;;;;;;;;;5077586;28;20047;-73
2024/02/13 03:51:03;;;;;;;28.65;13.80;;;;;;;;;;5078538;28;20055;-73
2024/02/13 03:53:30;;;;;;;20.60;13.00;;;;;;;;;;5066327;28;20040;-73
2024/02/13 03:55:56;;;;;;;19.60;12.52;;;;;;;;;;5075145;28;20574;-73
2024/02/13 03:58:22;;;;;;;19.08;12.40;;;;;;;;;;5068133;28;20051;-73
2024/02/13 04:00:49;;;;;;;16.02;11.05;;;;;;;;;;5049017;28;20468;-73
2024/02/13 04:03:15;;;;;;;16.35;11.60;;;;;;;;;;5082558;28;20059;-73
2024/02/13 04:05:42;;;;;;;20.65;13.48;;;;;;;;;;5063867;28;20056;-73
2024/02/13 04:08:09;;;;;;;20.25;12.70;;;;;;;;;;5068782;28;20059;-73
2024/02/13 04:10:35;;;;;;;20.42;12.90;;;;;;;;;;5074476;28;20081;-73
2024/02/13 04:13:06;;;;;;;20.50;12.98;;;;;;;;;;5069114;28;20123;-73
2024/02/13 04:15:33;;;;;;;23.23;14.23;;;;;;;;;;5062530;28;20044;-73
2024/02/13 04:17:59;;;;;;;23.42;13.02;;;;;;;;;;5071676;28;20055;-74
2024/02/13 04:20:26;;;;;;;20.70;13.18;;;;;;;;;;5061824;28;20052;-73
2024/02/13 04:22:52;;;;;;;17.40;12.30;;;;;;;;;;5068598;28;20048;-73
2024/02/13 04:25:19;;;;;;;19.20;11.85;;;;;;;;;;5065937;28;20047;-73
2024/02/13 04:27:45;;;;;;;22.80;12.13;;;;;;;;;;5069688;28;20135;-73
2024/02/13 04:30:12;;;;;;;18.77;11.88;;;;;;;;;;5070688;28;20044;-73
2024/02/13 04:32:39;;;;;;;18.10;11.80;;;;;;;;;;5070504;28;20048;-73
2024/02/13 04:35:10;;;;;;;18.23;12.35;;;;;;;;;;5055670;28;20056;-73
2024/02/13 04:37:36;;;;;;;21.75;11.32;;;;;;;;;;5064933;28;20044;-73
2024/02/13 04:40:03;;;;;;;24.10;12.18;;;;;;;;;;5058941;28;20491;-73
2024/02/13 04:42:33;;;;;;;19.80;11.73;;;;;;;;;;5086616;28;20044;-73
2024/02/13 04:45:00;;;;;;;15.98;11.68;;;;;;;;;;5062236;28;20144;-73
2024/02/13 04:47:30;;;;;;;18.05;12.25;;;;;;;;;;5076675;28;20125;-73
2024/02/13 04:49:57;;;;;;;18.77;11.93;;;;;;;;;;5069402;28;20127;-72
2024/02/13 04:52:24;;;;;;;17.75;12.07;;;;;;;;;;5076522;28;20044;-72
2024/02/13 04:54:51;;;;;;;17.42;11.70;;;;;;;;;;5081847;28;20055;-72
2024/02/13 04:57:18;;;;;;;21.38;11.80;;;;;;;;;;5072955;28;20051;-73
2024/02/13 04:59:50;;;;;;;22.38;12.45;;;;;;;;;;5074339;28;20045;-72
2024/02/13 05:02:18;;;;;;;15.45;11.52;;;;;;;;;;5053010;28;20055;-73
2024/02/13 05:07:29;;;;;;;22.50;11.80;;;;;;;;;;5075333;28;20135;-73
2024/02/13 05:09:57;;;;;;;19.75;11.75;;;;;;;;;;5065568;28;20461;-73
2024/02/13 05:12:23;;;;;;;19.63;11.25;;;;;;;;;;5094004;28;20101;-73
2024/02/13 05:14:51;;;;;;;17.20;11.80;;;;;;;;;;5082692;28;20101;-73
2024/02/13 05:17:19;;;;;;;19.17;11.73;;;;;;;;;;5066804;28;20044;-73
2024/02/13 05:19:48;;;;;;;17.05;11.63;;;;;;;;;;5070554;28;20139;-73
2024/02/13 05:22:15;;;;;;;20.30;10.98;;;;;;;;;;5060660;28;20052;-73
2024/02/13 05:24:42;;;;;;;19.83;11.48;;;;;;;;;;5074070;28;20049;-72
2024/02/13 05:27:09;;;;;;;21.58;11.85;;;;;;;;;;5069146;28;20048;-70
2024/02/13 05:29:36;;;;;;;21.42;11.10;;;;;;;;;;5080459;28;20512;-71
2024/02/13 05:32:03;;;;;;;21.50;11.95;;;;;;;;;;5071533;28;20050;-71
2024/02/13 05:34:29;;;;;;;21.80;11.98;;;;;;;;;;5068427;28;20048;-71
2024/02/13 05:36:58;;;;;;;20.52;11.55;;;;;;;;;;5061395;28;20715;-71
2024/02/13 05:39:25;;;;;;;18.30;11.35;;;;;;;;;;5072969;28;20048;-71
2024/02/13 05:41:51;;;;;;;19.80;11.32;;;;;;;;;;5067077;28;20526;-71
2024/02/13 05:44:18;;;;;;;19.42;10.77;;;;;;;;;;5078220;28;20117;-70
2024/02/13 05:46:44;;;;;;;17.90;10.70;;;;;;;;;;5069172;28;20125;-71
2024/02/13 05:49:11;;;;;;;21.02;11.02;;;;;;;;;;5068584;28;20078;-71
2024/02/13 05:51:38;;;;;;;17.00;10.38;;;;;;;;;;5060564;28;20713;-72
2024/02/13 05:54:09;;;;;;;23.70;11.35;;;;;;;;;;5081514;28;20388;-71
2024/02/13 05:56:35;;;;;;;19.23;11.07;;;;;;;;;;5060446;28;20131;-71
2024/02/13 05:59:03;;;;;;;23.77;11.77;;;;;;;;;;5065878;28;20048;-72
2024/02/13 06:01:31;;;;;;;19.15;11.32;;;;;;;;;;5059389;28;20048;-73
2024/02/13 06:04:01;;;;;;;19.80;10.68;;;;;;;;;;5079643;28;20439;-71
2024/02/13 06:06:27;;;;;;;19.88;10.70;;;;;;;;;;5081984;28;20052;-71
2024/02/13 06:08:56;;;;;;;16.90;10.38;;;;;;;;;;5052343;28;20098;-71
2024/02/13 06:11:26;;;;;;;24.65;11.65;;;;;;;;;;5080489;28;20400;-71
2024/02/13 06:13:58;;;;;;;22.75;10.55;;;;;;;;;;5070652;28;20048;-71
2024/02/13 06:16:24;;;;;;;20.02;10.57;;;;;;;;;;5050531;28;20056;-71
2024/02/13 06:18:50;;;;;;;19.70;10.68;;;;;;;;;;5068160;28;20159;-72
2024/02/13 06:21:19;;;;;;;17.77;10.35;;;;;;;;;;5069824;28;20489;-71
2024/02/13 06:23:50;;;;;;;17.45;9.95;;;;;;;;;;5070167;28;20777;-71
2024/02/13 06:26:17;;;;;;;22.48;9.35;;;;;;;;;;5065979;28;20067;-71
2024/02/13 06:28:43;;;;;;;18.17;10.07;;;;;;;;;;5079712;28;20047;-71
2024/02/13 06:31:10;;;;;;;15.52;9.70;;;;;;;;;;5072958;28;20088;-72
2024/02/13 06:33:38;;;;;;;22.92;10.80;;;;;;;;;;5091130;28;20043;-70
2024/02/13 06:36:05;;;;;;;;;;;;;;;;;;5075040;28;20040;-71
2024/02/13 06:38:34;;;;;;;15.75;10.52;;;;;;;;;;5073994;28;19977;-71
2024/02/13 06:41:05;;;;;;;19.40;10.85;;;;;;;;;;5071480;28;20664;-72
2024/02/13 06:43:34;;;;;;;19.70;11.10;;;;;;;;;;5074463;28;20437;-70
2024/02/13 06:46:01;;;;;;;21.55;10.50;;;;;;;;;;5071077;28;20040;-71
2024/02/13 06:48:28;;;;;;;20.90;10.45;;;;;;;;;;5077419;28;20105;-71
2024/02/13 06:50:54;;;;;;;19.40;9.75;;;;;;;;;;5061191;28;20044;-71
2024/02/13 06:53:22;;;;;;;15.20;8.98;;;;;;;;;;5084867;28;20048;-71
2024/02/13 06:55:48;;;;;;;16.50;8.63;;;;;;;;;;5056425;28;20041;-71
2024/02/13 06:58:17;;;;;;;17.90;9.48;;;;;;;;;;5070318;28;20047;-71
2024/02/13 07:00:43;;;;;;;17.45;9.43;;;;;;;;;;5047086;28;20045;-71
2024/02/13 07:03:10;;;;;;;15.32;8.98;;;;;;;;;;5081641;28;20127;-72
2024/02/13 07:05:40;;;;;;;21.42;8.80;;;;;;;;;;5069071;28;20044;-70
2024/02/13 07:08:06;;;;;;;16.83;8.15;;;;;;;;;;5062348;28;20052;-71
2024/02/13 07:10:33;;;;;;;21.00;8.63;;;;;;;;;;5061573;28;20127;-71
2024/02/13 07:13:00;;;;;;;18.30;8.07;;;;;;;;;;5082263;28;20145;-71
2024/02/13 07:15:26;;;;;;;12.73;7.50;;;;;;;;;;5068601;28;20048;-72
2024/02/13 07:17:53;;;;;;;20.27;7.85;;;;;;;;;;5080175;28;20045;-71
2024/02/13 07:20:26;;;;;;;12.88;6.40;;;;;;;;;;5070311;28;20094;-70
2024/02/13 07:22:53;;;;;;;15.98;7.18;;;;;;;;;;5071860;28;20097;-72
2024/02/13 07:25:19;;;;;;;16.20;7.60;;;;;;;;;;5071015;28;20048;-71
2024/02/13 07:27:47;;;;;;;14.70;6.63;;;;;;;;;;5078222;28;20044;-71
2024/02/13 07:30:14;;;;;;;14.05;7.03;;;;;;;;;;5084293;28;20047;-71
2024/02/13 07:32:41;;;;;;;15.20;7.23;;;;;;;;;;5084464;28;20064;-71
2024/02/13 07:35:09;;;;;;;16.10;6.78;;;;;;;;;;5079528;28;20380;-70
2024/02/13 07:37:35;;;;;;;15.82;6.35;;;;;;;;;;5076781;28;20078;-71
2024/02/13 07:40:02;;;;;;;12.40;6.43;;;;;;;;;;5078887;28;20109;-71
2024/02/13 07:42:29;;;;;;;18.15;7.40;;;;;;;;;;5079352;28;20035;-71
2024/02/13 07:44:55;;;;;;;13.93;6.43;;;;;;;;;;5074658;28;20048;-71
2024/02/13 07:47:22;;;;;;;14.88;6.80;;;;;;;;;;5077555;28;20051;-71
2024/02/13 07:49:48;;;;;;;12.82;5.82;;;;;;;;;;5071897;28;20496;-71
2024/02/13 07:52:17;;;;;;;14.55;6.25;;;;;;;;;;5069474;28;20676;-72
2024/02/13 07:54:47;;;;;;;12.48;6.50;;;;;;;;;;5085315;28;20048;-71
2024/02/13 07:57:17;;;;;;;11.10;5.97;;;;;;;;;;5076569;28;20178;-71
2024/02/13 07:59:44;;;;;;;13.45;6.28;;;;;;;;;;5076654;28;20101;-70
2024/02/13 08:02:12;;;;;;;12.15;5.57;;;;;;;;;;5059369;28;20051;-71
2024/02/13 08:04:39;;;;;;;12.40;6.55;;;;;;;;;;5066401;28;20097;-70
2024/02/13 08:07:07;;;;;;;17.55;6.85;;;;;;;;;;5077320;28;20847;-71
2024/02/13 08:09:34;;;;;;;10.80;5.80;;;;;;;;;;5068725;28;20048;-71
2024/02/13 08:12:06;;;;;;;17.25;5.70;;;;;;;;;;5087611;28;20097;-72
2024/02/13 08:14:33;;;;;;;20.08;6.80;;;;;;;;;;5073183;28;20044;-72
2024/02/13 08:17:00;;;;;;;10.32;5.20;;;;;;;;;;5067582;28;20675;-70
2024/02/13 08:19:27;;;;;;;13.25;5.40;;;;;;;;;;5067165;28;20138;-72
2024/02/13 08:21:53;;;;;;;11.48;5.50;;;;;;;;;;5069949;28;20139;-70
2024/02/13 08:24:20;;;;;;;13.23;6.18;;;;;;;;;;5071076;28;20600;-71
2024/02/13 08:26:48;;;;;;;11.73;5.50;;;;;;;;;;5080843;28;20044;-70
2024/02/13 08:29:15;;;;;;;11.57;6.15;;;;;;;;;;5067308;28;21583;-71
2024/02/13 08:31:41;;;;;;;15.52;5.63;;;;;;;;;;5065408;28;20055;-71
2024/02/13 08:34:07;;;;;;;18.98;5.60;;;;;;;;;;5085089;28;20139;-72
2024/02/13 08:36:37;;;;;;;15.07;5.45;;;;;;;;;;5075188;28;20142;-71
2024/02/13 08:39:05;;;;;;;11.55;5.53;;;;;;;;;;5053464;28;20106;-71
2024/02/13 08:41:32;;;;;;;14.15;5.43;;;;;;;;;;5076844;28;20052;-70
2024/02/13 08:43:59;;;;;;;14.20;5.45;;;;;;;;;;5087715;28;20062;-73
2024/02/13 08:46:32;;;;;;;10.32;4.88;;;;;;;;;;5080579;28;20055;-71
2024/02/13 08:48:58;;;;;;;17.75;5.28;;;;;;;;;;5075228;28;20036;-72
2024/02/13 08:51:26;;;;;;;10.13;5.43;;;;;;;;;;5083241;28;20066;-69
2024/02/13 08:53:53;;;;;;;13.55;4.80;;;;;;;;;;5067755;28;20132;-71
2024/02/13 08:56:21;;;;;;;11.35;4.93;;;;;;;;;;5080973;28;20044;-73
2024/02/13 08:58:52;;;;;;;15.75;6.07;;;;;;;;;;5074987;28;20070;-73
2024/02/13 09:01:19;;;;;;;9.68;4.47;;;;;;;;;;5072404;28;20131;-73
2024/02/13 09:03:59;;;;;;;14.45;4.75;;;;;;;;;;5066425;28;20637;-74
2024/02/13 09:06:26;;;;;;;11.25;4.53;;;;;;;;;;5065944;28;20507;-72
2024/02/13 09:08:54;;;;;;;12.95;4.57;;;;;;;;;;5082529;28;20667;-73
2024/02/13 09:11:20;;;;;;;9.25;4.47;;;;;;;;;;5050091;28;20088;-73
2024/02/13 09:13:47;;;;;;;13.90;5.07;;;;;;;;;;5068143;28;20110;-72
2024/02/13 09:16:13;;;;;;;12.98;5.32;;;;;;;;;;5085368;28;20174;-73
2024/02/13 09:18:40;;;;;;;13.40;4.00;;;;;;;;;;5069633;28;20438;-73
2024/02/13 09:21:08;;;;;;;12.68;3.78;;;;;;;;;;5085715;28;20059;-72
2024/02/13 09:23:35;;;;;;;11.30;4.43;;;;;;;;;;5088039;28;20101;-72
2024/02/13 09:26:02;;;;;;;7.28;3.58;;;;;;;;;;5089639;28;20040;-72
2024/02/13 09:28:28;;;;;;;11.57;4.22;;;;;;;;;;5071021;28;20512;-73
2024/02/13 09:30:54;;;;;;;18.23;4.97;;;;;;;;;;5070367;28;20055;-73
2024/02/13 09:33:22;;;;;;;12.68;4.85;;;;;;;;;;5074501;28;20107;-73
2024/02/13 09:35:50;;;;;;;10.80;3.83;;;;;;;;;;5072364;28;20059;-73
2024/02/13 09:38:17;;;;;;;16.33;5.57;;;;;;;;;;5083220;28;20480;-73
2024/02/13 09:40:45;;;;;;;9.23;3.63;;;;;;;;;;5063005;28;20056;-73
2024/02/13 09:43:12;;;;;;;12.27;4.43;;;;;;;;;;5076882;28;20082;-73
2024/02/13 09:45:42;;;;;;;9.05;3.63;;;;;;;;;;5069078;28;20049;-73
2024/02/13 09:48:28;;;;;;;9.70;3.60;;;;;;;;;;5060674;28;20124;-74
2024/02/13 09:50:58;;;;;;;14.93;4.00;;;;;;;;;;5082852;28;20040;-73
2024/02/13 09:53:25;;;;;;;11.93;3.97;;;;;;;;;;5077102;28;20048;-73
2024/02/13 09:55:53;;;;;;;12.25;4.22;;;;;;;;;;5071888;28;20145;-73
2024/02/13 09:58:20;;;;;;;10.45;3.75;;;;;;;;;;5063625;28;20059;-73
2024/02/13 10:00:47;;;;;;;11.35;3.70;;;;;;;;;;5078020;28;20047;-73
2024/02/13 10:03:13;;;;;;;12.93;3.92;;;;;;;;;;5078512;28;20045;-73
2024/02/13 10:05:40;;;;;;;6.63;3.22;;;;;;;;;;5052495;28;20600;-71
2024/02/13 10:08:07;;;;;;;10.90;3.40;;;;;;;;;;5082918;28;20044;-71
2024/02/13 10:10:35;;;;;;;12.95;3.58;;;;;;;;;;5065546;28;20076;-71
2024/02/13 10:13:03;;;;;;;11.73;3.42;;;;;;;;;;5093048;28;20055;-72
2024/02/13 10:15:43;;;;;;;9.52;3.75;;;;;;;;;;5065180;28;20528;-72
2024/02/13 10:18:11;;;;;;;9.48;3.15;;;;;;;;;;5059987;28;20052;-73
2024/02/13 10:20:41;;;;;;;11.48;3.70;;;;;;;;;;5076244;28;20037;-71
2024/02/13 10:23:11;;;;;;;14.10;4.13;;;;;;;;;;5081283;28;20526;-71
2024/02/13 10:25:39;;;;;;;10.07;3.83;;;;;;;;;;5087551;28;20572;-72
2024/02/13 10:28:06;;;;;;;8.45;3.75;;;;;;;;;;5074337;28;20138;-72
2024/02/13 10:30:33;;;;;;;12.05;3.50;;;;;;;;;;5068439;28;20075;-72
2024/02/13 10:33:00;;;;;;;9.20;3.97;;;;;;;;;;5074640;28;20090;-72
2024/02/13 10:35:30;;;;;;;8.88;3.50;;;;;;;;;;5067991;28;20106;-71
2024/02/13 10:37:57;;;;;;;10.52;4.00;;;;;;;;;;5054448;28;20098;-72
2024/02/13 10:40:26;;;;;;;11.32;4.22;;;;;;;;;;5062450;28;20049;-72
2024/02/13 10:42:55;;;;;;;7.82;3.22;;;;;;;;;;5068983;28;20122;-71
2024/02/13 10:45:24;;;;;;;17.50;4.40;;;;;;;;;;5053931;28;20050;-71
2024/02/13 10:47:51;;;;;;;11.00;3.42;;;;;;;;;;5079173;28;20048;-71
2024/02/13 10:50:20;;;;;;;11.45;3.72;;;;;;;;;;5077381;28;20075;-72
2024/02/13 10:52:50;;;;;;;11.20;3.70;;;;;;;;;;5064769;28;20052;-73
2024/02/13 10:55:18;;;;;;;12.30;3.70;;;;;;;;;;5075688;28;20131;-72
2024/02/13 10:57:45;;;;;;;11.50;4.00;;;;;;;;;;5069171;28;20809;-73
2024/02/13 11:00:18;;;;;;;7.93;3.27;;;;;;;;;;5073795;28;20052;-72
2024/02/13 11:02:51;;;;;;;9.55;3.05;;;;;;;;;;5093730;27;20051;-73
2024/02/13 11:05:18;;;;;;;15.38;3.40;;;;;;;;;;5056574;28;20513;-74
2024/02/13 11:07:45;;;;;;;7.13;2.92;;;;;;;;;;5083778;28;20567;-74
2024/02/13 11:10:12;;;;;;;11.77;3.33;;;;;;;;;;5072046;28;20419;-73
2024/02/13 11:12:39;;;;;;;10.73;3.25;;;;;;;;;;5085818;28;20063;-73
2024/02/13 11:15:09;;;;;;;8.65;3.13;;;;;;;;;;5072783;28;20162;-73
2024/02/13 11:17:45;;;;;;;6.75;2.70;;;;;;;;;;5066050;28;20048;-72
2024/02/13 11:20:19;;;;;;;8.60;2.92;;;;;;;;;;5076139;28;20537;-74
2024/02/13 11:22:52;;;;;;;8.95;2.90;;;;;;;;;;5075594;28;20449;-74
2024/02/13 11:25:25;;;;;;;8.43;3.08;;;;;;;;;;5071136;28;20101;-74
2024/02/13 11:27:55;;;;;;;9.65;2.80;;;;;;;;;;5059694;28;20056;-74
2024/02/13 11:30:25;;;;;;;7.28;2.78;;;;;;;;;;5064064;28;20559;-75
2024/02/13 11:33:02;;;;;;;7.43;2.50;;;;;;;;;;5047293;28;20056;-73
2024/02/13 11:35:33;;;;;;;7.30;3.03;;;;;;;;;;5077836;28;20097;-74
2024/02/13 11:38:09;;;;;;;10.27;2.85;;;;;;;;;;5062968;28;20429;-75
2024/02/13 11:40:44;;;;;;;10.25;3.30;;;;;;;;;;5078632;28;20048;-74
2024/02/13 11:43:20;;;;;;;6.95;2.17;;;;;;;;;;5075947;28;20080;-73
2024/02/13 11:45:46;;;;;;;7.93;3.15;;;;;;;;;;5074507;28;20107;-73
2024/02/13 11:48:25;;;;;;;8.90;3.05;;;;;;;;;;5078193;28;20060;-73
2024/02/13 11:50:58;;;;;;;8.95;3.15;;;;;;;;;;5065943;28;20374;-75
2024/02/13 11:53:25;;;;;;;7.43;2.65;;;;;;;;;;5051623;28;20159;-74
2024/02/13 11:55:54;;;;;;;7.03;2.65;;;;;;;;;;5067424;28;20560;-73
2024/02/13 11:58:21;;;;;;;;;;;;;;;;;;5073777;28;20056;-73
2024/02/13 12:01:02;;;;;;;4.38;2.22;;;;;;;;;;5072695;28;19960;-74
2024/02/13 12:03:33;;;;;;;7.10;2.08;;;;;;;;;;5073371;28;20054;-73
2024/02/13 12:06:00;;;;;;;5.43;2.50;;;;;;;;;;5055047;28;20062;-74
2024/02/13 12:08:28;;;;;;;7.57;2.53;;;;;;;;;;5067494;28;20052;-74
2024/02/13 12:10:57;;;;;;;4.05;2.13;;;;;;;;;;5072067;28;20289;-74
2024/02/13 12:13:24;;;;;;;8.25;2.33;;;;;;;;;;5072187;28;20087;-73
2024/02/13 12:15:51;;;;;;;8.23;2.38;;;;;;;;;;5078785;28;20052;-74
2024/02/13 12:18:18;;;;;;;9.13;2.70;;;;;;;;;;5071278;28;20044;-74
2024/02/13 12:20:45;;;;;;;6.85;2.63;;;;;;;;;;5053567;28;20398;-73
2024/02/13 12:23:13;;;;;;;7.38;2.85;;;;;;;;;;5078747;28;20052;-73
2024/02/13 12:25:41;;;;;;;8.25;2.65;;;;;;;;;;5070593;28;20044;-74
2024/02/13 12:28:09;;;;;;;8.98;2.80;;;;;;;;;;5068518;28;20084;-73
2024/02/13 12:30:36;;;;;;;8.20;2.78;;;;;;;;;;5061991;28;20057;-74
2024/02/13 12:33:06;;;;;;;11.25;2.70;;;;;;;;;;5076211;28;20052;-73
2024/02/13 12:35:33;;;;;;;10.25;2.67;;;;;;;;;;5080378;28;20044;-73
2024/02/13 12:38:14;;;;;;;7.63;2.47;;;;;;;;;;5058437;28;20047;-73
2024/02/13 12:40:42;;;;;;;5.75;2.13;;;;;;;;;;5079832;28;20044;-73
2024/02/13 12:43:09;;;;;;;5.22;1.90;;;;;;;;;;5071477;28;20101;-74
2024/02/13 12:45:41;;;;;;;9.20;2.53;;;;;;;;;;5078753;28;20753;-74
2024/02/13 12:48:09;;;;;;;6.50;2.08;;;;;;;;;;5066680;28;20146;-73
2024/02/13 12:50:36;;;;;;;5.97;2.08;;;;;;;;;;5072364;28;20143;-73
2024/02/13 12:53:09;;;;;;;7.30;1.73;;;;;;;;;;5082528;28;20139;-73
2024/02/13 12:55:38;;;;;;;5.47;1.90;;;;;;;;;;5080305;28;20652;-73
2024/02/13 12:58:09;;;;;;;7.85;2.20;;;;;;;;;;5079536;28;20140;-74
2024/02/13 13:00:38;;;;;;;8.68;2.10;;;;;;;;;;5057450;28;20139;-73
2024/02/13 13:03:06;;;;;;;;;;;;;;;;;;5072666;28;20051;-73
2024/02/13 13:05:33;;;;;;;3.28;1.33;;;;;;;;;;5084790;28;19924;-72
2024/02/13 13:08:04;;;;;;;6.32;1.50;;;;;;;;;;5076207;28;20060;-73
2024/02/13 13:10:31;;;;;;;5.30;1.42;;;;;;;;;;5055213;28;20269;-73
2024/02/13 13:12:57;;;;;;;5.68;1.30;;;;;;;;;;5067470;28;20048;-73
2024/02/13 13:15:26;;;;;;;4.50;1.50;;;;;;;;;;5061382;28;20137;-72
2024/02/13 13:17:54;;;;;;;7.28;1.80;;;;;;;;;;5068745;28;20535;-73
2024/02/13 13:20:23;;;;;;;6.60;1.50;;;;;;;;;;5068121;28;20087;-74
2024/02/13 13:22:51;;;;;;;9.63;2.35;;;;;;;;;;5070648;28;20116;-73
2024/02/13 13:25:25;;;;;;;4.95;1.38;;;;;;;;;;5077788;28;20132;-73
2024/02/13 13:27:51;;;;;;;5.53;1.70;;;;;;;;;;5080517;28;20048;-73
2024/02/13 13:30:19;;;;;;;4.50;1.58;;;;;;;;;;5055619;28;20109;-73
2024/02/13 13:32:47;;;;;;;6.85;1.60;;;;;;;;;;5065601;28;20135;-73
2024/02/13 13:35:13;;;;;;;5.97;1.70;;;;;;;;;;5075175;28;20089;-73
2024/02/13 13:37:40;;;;;;;5.85;1.80;;;;;;;;;;5082285;28;20048;-73
2024/02/13 13:40:13;;;;;;;6.35;1.88;;;;;;;;;;5100904;28;20052;-73
2024/02/13 13:42:46;;;;;;;5.35;1.60;;;;;;;;;;5073334;28;20136;-73
2024/02/13 13:45:15;;;;;;;5.50;1.90;;;;;;;;;;5084026;28;20158;-73
2024/02/13 13:47:42;;;;;;;4.20;1.35;;;;;;;;;;5077721;28;20165;-73
2024/02/13 13:50:17;;;;;;;5.97;1.73;;;;;;;;;;5087418;28;20095;-73
2024/02/13 13:52:44;;;;;;;7.50;1.70;;;;;;;;;;5090222;28;20043;-73
2024/02/13 13:55:11;;;;;;;8.65;1.73;;;;;;;;;;5063124;28;20044;-73
2024/02/13 13:57:37;;;;;;;6.10;2.13;;;;;;;;;;5066860;28;20046;-73
2024/02/13 14:00:10;;;;;;;8.60;1.95;;;;;;;;;;5066841;28;20093;-74
2024/02/13 14:02:37;;;;;;;7.13;1.70;;;;;;;;;;5078516;28;20040;-73
2024/02/13 14:05:05;;;;;;;8.48;2.13;;;;;;;;;;5076839;28;20130;-73
2024/02/13 14:07:31;;;;;;;11.77;2.17;;;;;;;;;;5078524;28;20048;-74
2024/02/13 14:09:58;;;;;;;6.50;2.15;;;;;;;;;;5088213;28;20120;-74
2024/02/13 14:12:24;;;;;;;7.68;2.22;;;;;;;;;;5090528;28;20989;-74
2024/02/13 14:14:52;;;;;;;4.28;1.83;;;;;;;;;;5079025;28;20076;-73
2024/02/13 14:17:20;;;;;;;7.07;1.58;;;;;;;;;;5063458;28;20044;-73
2024/02/13 14:19:46;;;;;;;7.43;1.90;;;;;;;;;;5056364;28;20052;-73
2024/02/13 14:22:14;;;;;;;6.05;1.92;;;;;;;;;;5064584;28;20052;-72
2024/02/13 14:24:41;;;;;;;6.93;1.63;;;;;;;;;;5072171;28;20126;-73
2024/02/13 14:27:07;;;;;;;4.97;1.73;;;;;;;;;;5063894;28;20052;-73
2024/02/13 14:29:33;;;;;;;6.97;1.92;;;;;;;;;;5071514;28;20054;-74
2024/02/13 14:32:00;;;;;;;9.57;1.77;;;;;;;;;;5064059;28;20605;-73
2024/02/13 14:34:26;;;;;;;8.38;1.90;;;;;;;;;;5078437;28;20735;-73
2024/02/13 14:36:53;;;;;;;3.08;1.20;;;;;;;;;;5076558;28;20056;-73